Time;durP1;ratioP1;P1;durP2;ratioP2;P2;SDS_P1;SDS_P2;PMS_P1;PMS_P2;Temp;Humidity;BMP_temperature;BMP_pressure;BME280_temperature;BME280_humidity;BME280_pressure;Samples;Min_cycle;Max_cycle;Signal;HPM_P1;HPM_P2
2024/01/14 00:00:11;;;;;;;45.50;22.07;;;2.20;99.90;;;;;;4939510;28;20235;-64
2024/01/14 00:02:39;;;;;;;41.70;23.20;;;2.20;99.90;;;;;;4915775;29;20612;-65
2024/01/14 00:05:07;;;;;;;48.03;23.63;;;2.20;99.90;;;;;;4918816;29;20514;-64
2024/01/14 00:07:37;;;;;;;46.27;22.93;;;2.20;99.90;;;;;;4897463;29;20200;-63
2024/01/14 00:10:07;;;;;;;39.03;22.17;;;2.20;99.90;;;;;;4902327;29;20491;-64
2024/01/14 00:12:34;;;;;;;47.70;21.67;;;2.20;99.90;;;;;;4941550;29;20272;-66
2024/01/14 00:15:01;;;;;;;50.00;21.70;;;2.20;99.90;;;;;;4914709;29;20210;-64
2024/01/14 00:17:29;;;;;;;48.47;23.57;;;2.20;99.90;;;;;;4916374;29;20188;-66
2024/01/14 00:20:00;;;;;;;47.80;22.93;;;2.20;99.90;;;;;;4919596;29;20212;-65
2024/01/14 00:22:27;;;;;;;50.43;22.90;;;2.20;99.90;;;;;;4910426;29;20275;-64
2024/01/14 00:24:54;;;;;;;49.90;22.07;;;2.20;99.90;;;;;;4914655;29;20200;-64
2024/01/14 00:27:21;;;;;;;39.23;21.93;;;2.20;99.90;;;;;;4910373;29;20211;-64
2024/01/14 00:29:49;;;;;;;46.17;23.47;;;2.20;99.90;;;;;;4927437;29;20204;-62
2024/01/14 00:32:16;;;;;;;41.77;20.97;;;2.20;99.90;;;;;;4910914;29;20755;-64
2024/01/14 00:34:43;;;;;;;40.53;20.67;;;2.10;99.90;;;;;;4911431;29;20699;-64
2024/01/14 00:37:10;;;;;;;37.87;20.30;;;2.20;99.90;;;;;;4908737;29;20677;-63
2024/01/14 00:39:38;;;;;;;51.50;22.17;;;2.10;99.90;;;;;;4918613;29;20474;-62
2024/01/14 00:42:06;;;;;;;46.57;22.83;;;2.10;99.90;;;;;;4915261;29;20195;-64
2024/01/14 00:44:34;;;;;;;40.73;19.83;;;2.10;99.90;;;;;;4918653;29;20203;-64
2024/01/14 00:47:02;;;;;;;32.93;19.47;;;2.10;99.90;;;;;;4912905;29;20587;-65
2024/01/14 00:49:29;;;;;;;36.37;18.97;;;2.10;99.90;;;;;;4910539;29;20196;-64
2024/01/14 00:51:56;;;;;;;41.93;20.67;;;2.10;99.90;;;;;;4915883;29;20646;-64
2024/01/14 00:54:23;;;;;;;36.03;19.40;;;2.10;99.90;;;;;;4923617;29;20324;-65
2024/01/14 00:56:51;;;;;;;48.00;22.73;;;2.10;99.90;;;;;;4924120;29;20206;-63
2024/01/14 00:59:18;;;;;;;42.80;19.53;;;2.10;99.90;;;;;;4919358;29;20323;-62
2024/01/14 01:01:45;;;;;;;36.13;20.50;;;2.10;99.90;;;;;;4946204;28;20238;-63
2024/01/14 01:04:12;;;;;;;41.30;18.40;;;2.10;99.90;;;;;;4949312;28;20210;-64
2024/01/14 01:06:39;;;;;;;40.17;19.10;;;2.10;99.90;;;;;;4934305;28;20724;-64
2024/01/14 01:09:06;;;;;;;40.70;19.00;;;2.10;99.90;;;;;;4942661;28;20191;-64
2024/01/14 01:11:33;;;;;;;37.73;19.20;;;2.10;99.90;;;;;;4951595;28;20298;-64
2024/01/14 01:14:00;;;;;;;34.23;19.67;;;2.10;99.90;;;;;;4953278;28;20215;-64
2024/01/14 01:16:27;;;;;;;41.13;19.90;;;2.10;99.90;;;;;;4957113;28;20195;-63
2024/01/14 01:18:54;;;;;;;40.97;18.40;;;2.10;99.90;;;;;;4957207;28;20191;-63
2024/01/14 01:21:22;;;;;;;36.87;18.37;;;2.10;99.90;;;;;;4948049;28;20648;-65
2024/01/14 01:23:49;;;;;;;36.07;18.30;;;2.10;99.90;;;;;;4947316;28;20305;-62
2024/01/14 01:26:17;;;;;;;38.37;19.07;;;2.00;99.90;;;;;;4948029;28;20269;-65
2024/01/14 01:28:44;;;;;;;34.17;19.80;;;2.10;99.90;;;;;;4949430;28;20536;-64
2024/01/14 01:31:10;;;;;;;41.10;18.90;;;2.00;99.90;;;;;;4960180;28;20202;-64
2024/01/14 01:33:38;;;;;;;42.17;21.80;;;2.10;99.90;;;;;;4957355;28;20207;-62
2024/01/14 01:36:06;;;;;;;35.13;18.83;;;2.10;99.90;;;;;;4953578;28;20197;-63
2024/01/14 01:38:34;;;;;;;29.60;17.93;;;2.00;99.90;;;;;;4933378;29;20199;-61
2024/01/14 01:41:01;;;;;;;29.43;17.50;;;2.00;99.90;;;;;;4943879;28;20191;-63
2024/01/14 01:43:28;;;;;;;32.27;17.83;;;2.00;99.90;;;;;;4952371;28;20191;-62
2024/01/14 01:45:56;;;;;;;33.23;18.13;;;2.00;99.90;;;;;;4951576;28;20225;-63
2024/01/14 01:48:24;;;;;;;36.67;17.40;;;2.10;99.90;;;;;;4935402;29;20615;-64
2024/01/14 01:50:54;;;;;;;26.47;15.23;;;2.10;99.90;;;;;;4937993;29;20246;-64
2024/01/14 01:53:22;;;;;;;24.53;15.43;;;2.10;99.90;;;;;;4942588;28;20278;-63
2024/01/14 01:55:49;;;;;;;28.33;17.03;;;2.10;99.90;;;;;;4951141;28;20195;-63
2024/01/14 01:58:16;;;;;;;33.40;18.13;;;2.10;99.90;;;;;;4955511;28;20199;-66
2024/01/14 02:00:43;;;;;;;28.47;16.67;;;2.00;99.90;;;;;;4948080;28;20238;-67
2024/01/14 02:03:11;;;;;;;29.43;16.97;;;2.00;99.90;;;;;;4948299;28;20553;-63
2024/01/14 02:05:42;;;;;;;34.90;18.23;;;2.00;99.90;;;;;;4932781;28;20198;-63
2024/01/14 02:08:09;;;;;;;33.30;19.57;;;2.10;99.90;;;;;;4953195;28;20543;-64
2024/01/14 02:10:36;;;;;;;33.17;18.63;;;2.10;99.90;;;;;;4954931;28;20730;-64
2024/01/14 02:13:04;;;;;;;35.87;18.60;;;2.10;99.90;;;;;;4950981;28;20644;-64
2024/01/14 02:15:31;;;;;;;30.37;18.13;;;2.10;99.90;;;;;;4932458;29;20203;-63
2024/01/14 02:17:58;;;;;;;36.77;17.83;;;2.10;99.90;;;;;;4952479;28;20629;-64
2024/01/14 02:20:25;;;;;;;29.97;18.67;;;2.10;99.90;;;;;;4936362;28;20191;-63
2024/01/14 02:22:55;;;;;;;37.27;18.70;;;2.10;99.90;;;;;;4950451;28;20214;-63
2024/01/14 02:25:22;;;;;;;38.03;19.83;;;2.10;99.90;;;;;;4944307;28;20203;-65
2024/01/14 02:27:49;;;;;;;39.80;20.10;;;2.10;99.90;;;;;;4947819;28;20206;-65
2024/01/14 02:30:18;;;;;;;40.80;21.33;;;2.10;99.90;;;;;;4948353;28;20210;-65
2024/01/14 02:32:48;;;;;;;37.17;20.03;;;2.10;99.90;;;;;;4951147;28;20199;-64
2024/01/14 02:35:16;;;;;;;43.03;22.57;;;2.10;99.90;;;;;;4939258;29;20771;-64
2024/01/14 02:37:47;;;;;;;39.63;20.30;;;2.10;99.90;;;;;;4947855;28;20230;-65
2024/01/14 02:40:16;;;;;;;33.97;18.63;;;2.10;99.90;;;;;;4949473;28;20194;-63
2024/01/14 02:42:43;;;;;;;43.80;20.87;;;2.10;99.90;;;;;;4933555;28;20199;-62
2024/01/14 02:45:10;;;;;;;39.20;18.97;;;2.20;99.90;;;;;;4943365;28;20306;-62
2024/01/14 02:47:37;;;;;;;41.73;21.67;;;2.10;99.90;;;;;;4948339;28;20534;-63
2024/01/14 02:50:04;;;;;;;43.47;20.50;;;2.20;99.90;;;;;;4937938;29;20191;-63
2024/01/14 02:52:32;;;;;;;41.23;21.57;;;2.20;99.90;;;;;;4955645;28;20191;-62
2024/01/14 02:54:59;;;;;;;40.80;21.07;;;2.20;99.90;;;;;;4955491;28;20646;-63
2024/01/14 02:57:26;;;;;;;34.80;19.57;;;2.20;99.90;;;;;;4953246;28;20545;-61
2024/01/14 02:59:53;;;;;;;43.67;21.27;;;2.20;99.90;;;;;;4920739;28;20254;-62
2024/01/14 03:06:01;;;;;;;38.33;19.70;;;2.20;99.90;;;;;;4950001;28;20179;-62
2024/01/14 03:08:28;;;;;;;38.30;19.60;;;2.20;99.90;;;;;;4939156;28;20281;-63
2024/01/14 03:10:55;;;;;;;42.13;21.80;;;2.20;99.90;;;;;;4949599;28;20213;-63
2024/01/14 03:13:22;;;;;;;43.73;22.63;;;2.20;99.90;;;;;;4950144;28;20222;-63
2024/01/14 03:15:49;;;;;;;38.30;21.77;;;2.20;99.90;;;;;;4938958;29;20811;-63
2024/01/14 03:18:16;;;;;;;36.50;20.13;;;2.20;99.90;;;;;;4955212;28;20191;-63
2024/01/14 03:20:43;;;;;;;38.40;20.67;;;2.20;99.90;;;;;;4951360;28;20201;-62
2024/01/14 03:23:10;;;;;;;35.87;20.93;;;2.30;99.90;;;;;;4940512;29;20195;-63
2024/01/14 03:25:37;;;;;;;43.50;21.60;;;2.20;99.90;;;;;;4958972;28;20198;-63
2024/01/14 03:28:04;;;;;;;37.20;21.10;;;2.20;99.90;;;;;;4950679;28;20245;-63
2024/01/14 03:30:31;;;;;;;41.87;22.03;;;2.20;99.90;;;;;;4935420;29;20214;-62
2024/01/14 03:32:58;;;;;;;35.47;21.27;;;2.20;99.90;;;;;;4951165;28;20191;-63
2024/01/14 03:35:25;;;;;;;40.30;22.23;;;2.20;99.90;;;;;;4956170;28;20214;-63
2024/01/14 03:37:52;;;;;;;32.93;20.13;;;2.20;99.90;;;;;;4931596;28;20226;-63
2024/01/14 03:40:19;;;;;;;29.73;19.23;;;2.20;99.90;;;;;;4949854;28;20219;-63
2024/01/14 03:42:46;;;;;;;32.83;19.37;;;2.20;99.90;;;;;;4947010;28;20623;-62
2024/01/14 03:45:13;;;;;;;35.27;19.00;;;2.20;99.90;;;;;;4948857;28;20199;-62
2024/01/14 03:47:40;;;;;;;30.33;18.40;;;2.20;99.90;;;;;;4947721;28;20203;-61
2024/01/14 03:50:07;;;;;;;39.03;19.83;;;2.20;99.90;;;;;;4952655;28;20221;-63
2024/01/14 03:52:34;;;;;;;36.80;20.67;;;2.20;99.90;;;;;;4931168;28;20432;-62
2024/01/14 03:55:01;;;;;;;36.27;21.47;;;2.20;99.90;;;;;;4946202;28;20659;-63
2024/01/14 03:57:28;;;;;;;30.23;19.97;;;2.20;99.90;;;;;;4935804;28;20191;-63
2024/01/14 03:59:55;;;;;;;30.73;19.87;;;2.20;99.90;;;;;;4915593;28;20735;-63
2024/01/14 04:02:22;;;;;;;39.13;19.27;;;2.20;99.90;;;;;;4929809;28;20203;-62
2024/01/14 04:04:49;;;;;;;33.97;19.93;;;2.20;99.90;;;;;;4960768;28;20198;-62
2024/01/14 04:07:15;;;;;;;37.67;20.37;;;2.20;99.90;;;;;;4933161;28;20207;-62
2024/01/14 04:09:42;;;;;;;30.40;19.10;;;2.10;99.90;;;;;;4952916;28;20802;-65
2024/01/14 04:12:09;;;;;;;37.03;18.70;;;2.10;99.90;;;;;;4955743;28;20241;-60
2024/01/14 04:14:36;;;;;;;39.33;20.17;;;2.20;99.90;;;;;;4931361;29;20289;-61
2024/01/14 04:17:04;;;;;;;35.43;20.23;;;2.20;99.90;;;;;;4949804;28;20256;-63
2024/01/14 04:19:31;;;;;;;31.00;19.57;;;2.20;99.90;;;;;;4947126;28;20693;-62
2024/01/14 04:21:58;;;;;;;26.57;17.63;;;2.10;99.90;;;;;;4953279;28;20286;-62
2024/01/14 04:24:25;;;;;;;33.00;19.03;;;2.10;99.90;;;;;;4943456;28;20258;-62
2024/01/14 04:26:52;;;;;;;33.20;18.33;;;2.10;99.90;;;;;;4955122;28;20207;-62
2024/01/14 04:29:19;;;;;;;31.67;18.37;;;2.10;99.90;;;;;;4944205;28;20196;-62
2024/01/14 04:31:46;;;;;;;35.47;19.13;;;2.20;99.90;;;;;;4957404;28;20310;-64
2024/01/14 04:34:13;;;;;;;35.30;18.93;;;2.20;99.90;;;;;;4934690;28;20206;-63
2024/01/14 04:36:40;;;;;;;29.13;17.63;;;2.20;99.90;;;;;;4958411;28;20246;-63
2024/01/14 04:39:07;;;;;;;41.20;19.23;;;2.20;99.90;;;;;;4958931;28;20205;-65
2024/01/14 04:41:34;;;;;;;41.80;21.00;;;2.20;99.90;;;;;;4963299;28;20190;-64
2024/01/14 04:44:02;;;;;;;32.27;19.60;;;2.20;99.90;;;;;;4963462;28;20250;-65
2024/01/14 04:46:29;;;;;;;35.23;19.30;;;2.20;99.90;;;;;;4945497;28;20210;-63
2024/01/14 04:48:56;;;;;;;42.33;20.97;;;2.10;99.90;;;;;;4954518;28;20671;-63
2024/01/14 04:51:23;;;;;;;40.30;20.80;;;2.20;99.90;;;;;;4951089;28;20305;-65
2024/01/14 04:53:50;;;;;;;47.83;21.07;;;2.10;99.90;;;;;;4960432;28;20300;-65
2024/01/14 04:56:17;;;;;;;41.70;21.97;;;2.10;99.90;;;;;;4928977;28;20202;-65
2024/01/14 04:58:44;;;;;;;38.13;19.10;;;2.10;99.90;;;;;;4955290;28;20261;-65
2024/01/14 05:01:11;;;;;;;36.03;19.17;;;2.10;99.90;;;;;;4966325;28;20234;-65
2024/01/14 05:03:38;;;;;;;46.50;20.83;;;2.10;99.90;;;;;;4962176;28;20536;-64
2024/01/14 05:06:05;;;;;;;34.63;20.37;;;2.10;99.90;;;;;;4956303;28;20642;-65
2024/01/14 05:08:32;;;;;;;39.60;21.17;;;2.10;99.90;;;;;;4939376;28;21062;-64
2024/01/14 05:10:59;;;;;;;43.13;20.77;;;2.00;99.90;;;;;;4951328;28;20238;-58
2024/01/14 05:13:26;;;;;;;38.37;20.60;;;2.00;99.90;;;;;;4963693;28;20210;-60
2024/01/14 05:15:53;;;;;;;37.60;20.83;;;2.00;99.90;;;;;;4945397;28;20541;-57
2024/01/14 05:18:20;;;;;;;43.40;22.00;;;2.00;99.90;;;;;;4945247;28;20206;-59
2024/01/14 05:20:47;;;;;;;36.90;20.30;;;2.00;99.90;;;;;;4938111;29;20687;-59
2024/01/14 05:23:14;;;;;;;38.40;20.23;;;2.10;99.90;;;;;;4962625;28;20664;-59
2024/01/14 05:25:42;;;;;;;41.90;19.90;;;2.10;99.90;;;;;;4970269;28;20292;-58
2024/01/14 05:28:08;;;;;;;38.00;19.87;;;2.10;99.90;;;;;;4952358;28;20781;-59
2024/01/14 05:30:35;;;;;;;36.73;19.53;;;2.10;99.90;;;;;;4958663;28;20273;-60
2024/01/14 05:33:02;;;;;;;35.77;21.33;;;2.10;99.90;;;;;;4941544;28;20207;-57
2024/01/14 05:35:30;;;;;;;36.93;19.83;;;2.10;99.90;;;;;;4963809;28;20561;-59
2024/01/14 05:37:57;;;;;;;38.90;21.33;;;2.10;99.90;;;;;;4956255;28;20296;-60
2024/01/14 05:40:24;;;;;;;47.10;21.87;;;2.10;99.90;;;;;;4963748;28;20269;-59
2024/01/14 05:42:50;;;;;;;37.73;21.07;;;2.10;99.90;;;;;;4953799;28;20620;-59
2024/01/14 05:45:17;;;;;;;41.70;23.30;;;2.10;99.90;;;;;;4969391;28;20628;-59
2024/01/14 05:47:44;;;;;;;39.40;19.90;;;2.20;99.90;;;;;;4955270;28;20278;-60
2024/01/14 05:50:12;;;;;;;52.63;22.97;;;2.20;99.90;;;;;;4937968;28;20243;-59
2024/01/14 05:52:40;;;;;;;44.10;22.27;;;2.20;99.90;;;;;;4941838;29;20229;-58
2024/01/14 05:55:08;;;;;;;32.70;19.90;;;2.20;99.90;;;;;;4939059;28;20219;-59
2024/01/14 05:57:35;;;;;;;40.57;21.17;;;2.10;99.90;;;;;;4942081;28;20195;-60
2024/01/14 06:00:02;;;;;;;41.90;20.10;;;2.10;99.90;;;;;;4934161;29;20227;-56
2024/01/14 06:02:32;;;;;;;30.53;19.47;;;2.10;99.90;;;;;;4967156;28;20198;-57
2024/01/14 06:04:59;;;;;;;33.50;18.90;;;2.10;99.90;;;;;;4969346;28;20265;-59
2024/01/14 06:07:26;;;;;;;38.80;19.90;;;2.00;99.90;;;;;;4958125;28;20524;-60
2024/01/14 06:09:53;;;;;;;35.33;21.03;;;2.00;99.90;;;;;;4958236;28;20211;-59
2024/01/14 06:12:20;;;;;;;37.27;20.27;;;2.10;99.90;;;;;;4943919;28;20301;-60
2024/01/14 06:14:47;;;;;;;34.53;20.37;;;2.00;99.90;;;;;;4957530;28;20629;-59
2024/01/14 06:17:15;;;;;;;32.47;19.50;;;2.00;99.90;;;;;;4939052;29;20194;-59
2024/01/14 06:19:42;;;;;;;39.17;20.83;;;2.00;99.90;;;;;;4952689;28;20674;-57
2024/01/14 06:22:11;;;;;;;38.17;19.93;;;2.00;99.90;;;;;;4956613;28;20230;-60
2024/01/14 06:24:38;;;;;;;35.93;20.13;;;2.10;99.90;;;;;;4938993;28;20259;-58
2024/01/14 06:27:05;;;;;;;41.93;21.47;;;2.00;99.90;;;;;;4951845;28;20664;-58
2024/01/14 06:29:32;;;;;;;37.87;20.33;;;2.10;99.90;;;;;;4947556;28;20700;-58
2024/01/14 06:31:59;;;;;;;40.23;20.77;;;2.00;99.90;;;;;;4960678;28;20207;-58
2024/01/14 06:34:26;;;;;;;39.43;20.33;;;2.00;99.90;;;;;;4937243;29;20276;-59
2024/01/14 06:36:53;;;;;;;49.43;23.20;;;2.00;99.90;;;;;;4940613;29;20226;-59
2024/01/14 06:39:20;;;;;;;42.20;22.63;;;2.00;99.90;;;;;;4946249;28;20772;-59
2024/01/14 06:41:47;;;;;;;47.40;23.40;;;2.00;99.90;;;;;;4968465;28;20190;-59
2024/01/14 06:44:16;;;;;;;45.30;22.30;;;2.00;99.90;;;;;;4951239;28;20221;-58
2024/01/14 06:46:44;;;;;;;46.97;23.10;;;2.00;99.90;;;;;;4955663;28;20213;-58
2024/01/14 06:49:11;;;;;;;46.10;22.67;;;2.00;99.90;;;;;;4942716;28;20206;-58
2024/01/14 06:51:44;;;;;;;42.13;22.57;;;2.00;99.90;;;;;;4953577;28;20199;-59
2024/01/14 06:54:12;;;;;;;47.40;22.93;;;2.00;99.90;;;;;;4944095;28;20198;-58
2024/01/14 06:56:46;;;;;;;44.43;22.67;;;2.00;99.90;;;;;;4941550;28;20305;-58
2024/01/14 06:59:15;;;;;;;40.83;22.43;;;2.00;99.90;;;;;;4954073;28;20198;-57
2024/01/14 07:01:42;;;;;;;46.50;22.27;;;2.00;99.90;;;;;;4934557;29;20255;-58
2024/01/14 07:04:10;;;;;;;50.53;23.23;;;2.00;99.90;;;;;;4966058;28;20202;-58
2024/01/14 07:06:37;;;;;;;41.80;21.87;;;2.00;99.90;;;;;;4957925;28;20217;-56
2024/01/14 07:09:04;;;;;;;43.23;22.27;;;2.00;99.90;;;;;;4938257;28;20194;-60
2024/01/14 07:11:31;;;;;;;46.43;21.40;;;2.00;99.90;;;;;;4938121;28;20297;-57
2024/01/14 07:13:58;;;;;;;43.60;22.70;;;2.00;99.90;;;;;;4941616;28;20207;-57
2024/01/14 07:16:26;;;;;;;45.97;21.77;;;2.00;99.90;;;;;;4953849;28;20211;-59
2024/01/14 07:18:53;;;;;;;43.00;22.63;;;2.00;99.90;;;;;;4952486;28;20321;-59
2024/01/14 07:21:22;;;;;;;54.53;23.33;;;2.00;99.90;;;;;;4959988;28;20253;-59
2024/01/14 07:23:50;;;;;;;40.77;22.73;;;2.00;99.90;;;;;;4955929;28;20269;-59
2024/01/14 07:26:18;;;;;;;42.83;22.23;;;1.90;99.90;;;;;;4958377;28;20262;-58
2024/01/14 07:28:52;;;;;;;47.40;22.93;;;2.00;99.90;;;;;;4940548;28;20230;-56
2024/01/14 07:31:23;;;;;;;50.60;22.90;;;1.90;99.90;;;;;;4960924;28;20668;-58
2024/01/14 07:33:51;;;;;;;41.17;22.87;;;1.90;99.90;;;;;;4935628;28;20245;-58
2024/01/14 07:36:19;;;;;;;38.33;20.83;;;2.00;99.90;;;;;;4936974;28;20214;-56
2024/01/14 07:38:47;;;;;;;38.27;21.10;;;2.00;99.90;;;;;;4955077;28;20226;-56
2024/01/14 07:41:15;;;;;;;42.93;22.97;;;2.00;99.90;;;;;;4941136;28;20213;-57
2024/01/14 07:43:43;;;;;;;42.37;22.27;;;2.00;99.90;;;;;;4954993;28;20207;-57
2024/01/14 07:46:11;;;;;;;44.37;21.77;;;2.00;99.90;;;;;;4928286;28;20213;-57
2024/01/14 07:48:38;;;;;;;41.30;22.33;;;2.00;99.90;;;;;;4952984;28;20190;-56
2024/01/14 07:51:05;;;;;;;39.17;21.80;;;2.00;99.90;;;;;;4940773;28;20716;-57
2024/01/14 07:53:33;;;;;;;36.33;19.60;;;2.00;99.90;;;;;;4951120;28;20240;-58
2024/01/14 07:56:01;;;;;;;48.37;23.70;;;2.00;99.90;;;;;;4933818;29;20874;-57
2024/01/14 07:58:28;;;;;;;43.60;22.37;;;2.00;99.90;;;;;;4939298;28;20273;-57
2024/01/14 08:00:55;;;;;;;51.40;24.17;;;2.10;99.90;;;;;;4946619;28;20241;-58
2024/01/14 08:03:29;;;;;;;47.30;23.00;;;2.00;99.90;;;;;;4943725;28;20665;-58
2024/01/14 08:05:58;;;;;;;41.47;21.17;;;2.10;99.90;;;;;;4935590;28;20287;-58
2024/01/14 08:08:25;;;;;;;48.90;23.67;;;2.10;99.90;;;;;;4954093;28;20492;-58
2024/01/14 08:10:52;;;;;;;47.13;23.47;;;2.10;99.90;;;;;;4939487;28;20191;-58
2024/01/14 08:13:19;;;;;;;45.10;23.83;;;2.00;99.90;;;;;;4949291;28;20568;-58
2024/01/14 08:15:47;;;;;;;51.97;24.60;;;2.10;99.90;;;;;;4951517;28;20256;-57
2024/01/14 08:18:16;;;;;;;40.10;22.07;;;2.10;99.90;;;;;;4946319;28;20218;-57
2024/01/14 08:20:43;;;;;;;42.67;22.83;;;2.10;99.90;;;;;;4952474;28;20242;-56
2024/01/14 08:23:10;;;;;;;42.00;22.40;;;2.10;99.90;;;;;;4927305;29;20672;-57
2024/01/14 08:25:41;;;;;;;44.90;24.30;;;2.10;99.90;;;;;;4949284;28;20676;-58
2024/01/14 08:28:08;;;;;;;50.13;23.57;;;2.10;99.90;;;;;;4936242;28;20556;-57
2024/01/14 08:30:35;;;;;;;48.53;22.13;;;2.10;99.90;;;;;;4936633;29;20278;-57
2024/01/14 08:33:03;;;;;;;49.93;23.53;;;2.10;99.90;;;;;;4934920;29;20209;-56
2024/01/14 08:35:30;;;;;;;48.67;24.87;;;2.10;99.90;;;;;;4955152;28;20313;-57
2024/01/14 08:37:57;;;;;;;43.13;22.13;;;2.10;99.90;;;;;;4951232;28;20187;-58
2024/01/14 08:40:24;;;;;;;48.70;21.63;;;2.10;99.90;;;;;;4929276;29;20294;-56
2024/01/14 08:42:51;;;;;;;42.90;21.77;;;2.10;99.90;;;;;;4949998;28;20635;-64
2024/01/14 08:45:18;;;;;;;49.47;22.57;;;2.10;99.90;;;;;;4938742;28;20208;-64
2024/01/14 08:47:45;;;;;;;51.07;24.70;;;2.10;99.90;;;;;;4947136;28;20538;-64
2024/01/14 08:50:12;;;;;;;46.23;22.83;;;2.10;99.90;;;;;;4945097;28;20550;-61
2024/01/14 08:52:39;;;;;;;46.37;22.90;;;2.10;99.90;;;;;;4956306;28;21317;-61
2024/01/14 08:55:08;;;;;;;53.30;23.53;;;2.10;99.90;;;;;;4946266;28;20589;-63
2024/01/14 08:57:35;;;;;;;44.57;22.60;;;2.00;99.90;;;;;;4951359;28;20194;-64
2024/01/14 09:00:04;;;;;;;42.03;22.77;;;2.10;99.90;;;;;;4948454;28;20550;-64
2024/01/14 09:02:31;;;;;;;53.00;22.67;;;2.10;99.90;;;;;;4952392;28;20652;-64
2024/01/14 09:04:58;;;;;;;44.47;22.53;;;2.10;99.90;;;;;;4952684;28;20195;-63
2024/01/14 09:07:26;;;;;;;46.47;23.90;;;2.20;99.90;;;;;;4950616;28;20203;-63
2024/01/14 09:09:53;;;;;;;47.70;22.00;;;2.10;99.90;;;;;;4950660;28;20294;-63
2024/01/14 09:12:20;;;;;;;42.63;23.23;;;2.10;99.90;;;;;;4946714;28;20214;-64
2024/01/14 09:14:48;;;;;;;63.40;27.80;;;2.10;99.90;;;;;;4951645;28;20202;-64
2024/01/14 09:17:15;;;;;;;51.43;24.50;;;2.10;99.90;;;;;;4943196;28;20215;-64
2024/01/14 09:19:43;;;;;;;42.97;23.13;;;2.10;99.90;;;;;;4935941;29;20191;-64
2024/01/14 09:22:11;;;;;;;42.23;23.77;;;2.20;99.90;;;;;;4948407;28;20192;-62
2024/01/14 09:24:43;;;;;;;48.53;23.33;;;2.20;99.90;;;;;;4934638;28;20198;-64
2024/01/14 09:27:11;;;;;;;45.67;23.37;;;2.20;99.90;;;;;;4935115;28;20207;-64
2024/01/14 09:29:38;;;;;;;39.03;21.60;;;2.20;99.90;;;;;;4931171;29;20243;-63
2024/01/14 09:32:06;;;;;;;40.17;22.53;;;2.20;99.90;;;;;;4946688;28;20652;-64
2024/01/14 09:34:33;;;;;;;44.07;22.37;;;2.20;99.90;;;;;;4916750;28;20202;-61
2024/01/14 09:37:00;;;;;;;44.13;23.97;;;2.20;99.90;;;;;;4915036;29;20676;-65
2024/01/14 09:39:27;;;;;;;48.63;23.73;;;2.20;99.90;;;;;;4935924;28;20198;-64
2024/01/14 09:42:00;;;;;;;42.13;21.87;;;2.20;99.90;;;;;;4931513;28;20217;-65
2024/01/14 09:44:27;;;;;;;46.93;22.80;;;2.20;99.90;;;;;;4943283;28;20217;-62
2024/01/14 09:46:55;;;;;;;48.27;23.53;;;2.20;99.90;;;;;;4940743;28;20200;-63
2024/01/14 09:49:22;;;;;;;54.20;25.80;;;2.30;99.90;;;;;;4946447;28;20231;-63
2024/01/14 09:51:50;;;;;;;38.70;22.13;;;2.20;99.90;;;;;;4949785;28;20206;-64
2024/01/14 09:54:17;;;;;;;45.17;22.50;;;2.20;99.90;;;;;;4946094;28;20203;-63
2024/01/14 09:56:47;;;;;;;50.43;26.70;;;2.20;99.90;;;;;;4948400;28;20241;-63
2024/01/14 09:59:17;;;;;;;45.93;23.43;;;2.20;99.90;;;;;;4953642;28;20195;-64
2024/01/14 10:01:45;;;;;;;51.83;25.43;;;2.20;99.90;;;;;;4933757;29;20226;-64
2024/01/14 10:04:16;;;;;;;44.67;22.20;;;2.30;99.90;;;;;;4954181;28;20285;-64
2024/01/14 10:06:45;;;;;;;45.93;23.03;;;2.20;99.90;;;;;;4952460;28;20194;-64
2024/01/14 10:09:12;;;;;;;42.37;23.83;;;2.20;99.90;;;;;;4922135;28;20247;-62
2024/01/14 10:11:40;;;;;;;41.57;22.50;;;2.20;99.90;;;;;;4921508;29;20273;-63
2024/01/14 10:14:07;;;;;;;49.47;24.53;;;2.30;99.90;;;;;;4954218;28;20218;-63
2024/01/14 10:16:38;;;;;;;43.10;24.33;;;2.30;99.90;;;;;;4934953;28;20571;-62
2024/01/14 10:19:21;;;;;;;43.47;23.10;;;2.20;99.90;;;;;;4922295;28;20849;-63
2024/01/14 10:21:51;;;;;;;42.93;22.67;;;2.30;99.90;;;;;;4923488;28;20560;-63
2024/01/14 10:24:38;;;;;;;36.00;21.73;;;2.30;99.90;;;;;;4949963;28;20644;-63
2024/01/14 10:27:05;;;;;;;42.23;23.10;;;2.30;99.90;;;;;;4958956;28;20274;-62
2024/01/14 10:29:32;;;;;;;38.97;22.03;;;2.20;99.90;;;;;;4953477;28;20210;-62
2024/01/14 10:31:59;;;;;;;43.43;21.90;;;2.20;99.90;;;;;;4951213;28;20269;-62
2024/01/14 10:34:28;;;;;;;44.47;23.33;;;2.20;99.90;;;;;;4931964;28;20199;-63
2024/01/14 10:37:01;;;;;;;42.57;22.63;;;2.20;99.90;;;;;;4957806;28;20520;-63
2024/01/14 10:39:31;;;;;;;37.20;22.73;;;2.30;99.90;;;;;;4952069;28;20686;-63
2024/01/14 10:42:02;;;;;;;40.67;23.40;;;2.20;99.90;;;;;;4949055;28;20282;-63
2024/01/14 10:44:30;;;;;;;36.30;21.17;;;2.20;99.90;;;;;;4955460;28;20640;-62
2024/01/14 10:47:02;;;;;;;43.13;21.60;;;2.20;99.90;;;;;;4956198;28;20280;-62
2024/01/14 10:49:34;;;;;;;37.80;20.47;;;2.30;99.90;;;;;;4945996;28;20529;-62
2024/01/14 10:52:10;;;;;;;33.77;20.03;;;2.20;99.90;;;;;;4930827;28;20334;-63
2024/01/14 10:54:49;;;;;;;37.90;22.53;;;2.30;99.90;;;;;;4959555;28;20208;-64
2024/01/14 10:57:25;;;;;;;39.87;23.00;;;2.30;99.90;;;;;;4944745;28;20640;-63
2024/01/14 11:00:05;;;;;;;37.67;21.07;;;2.30;99.90;;;;;;4949863;28;20321;-64
2024/01/14 11:02:34;;;;;;;41.97;22.03;;;2.30;99.90;;;;;;4948332;28;20289;-63
2024/01/14 11:05:02;;;;;;;25.83;19.53;;;2.30;99.90;;;;;;4926116;28;20711;-63
2024/01/14 11:07:33;;;;;;;31.10;20.13;;;2.30;99.90;;;;;;4951493;28;20199;-64
2024/01/14 11:10:05;;;;;;;34.53;19.83;;;2.20;99.90;;;;;;4944402;28;20284;-63
2024/01/14 11:12:41;;;;;;;31.97;20.70;;;2.30;99.90;;;;;;4930660;29;20447;-63
2024/01/14 11:15:22;;;;;;;36.60;21.87;;;2.20;99.90;;;;;;4947143;28;20250;-63
2024/01/14 11:18:01;;;;;;;33.70;20.27;;;2.20;99.90;;;;;;4928502;28;20231;-63
2024/01/14 11:20:32;;;;;;;34.50;21.27;;;2.20;99.90;;;;;;4945968;28;20191;-63
2024/01/14 11:23:21;;;;;;;41.57;21.23;;;2.30;99.90;;;;;;4938158;29;20563;-64
2024/01/14 11:25:49;;;;;;;40.70;21.40;;;2.30;99.90;;;;;;4949058;28;20231;-64
2024/01/14 11:28:16;;;;;;;34.30;19.83;;;2.20;99.90;;;;;;4948143;28;20222;-64
2024/01/14 11:30:51;;;;;;;38.07;22.43;;;2.30;99.90;;;;;;4947058;28;20191;-63
2024/01/14 11:33:46;;;;;;;29.93;19.83;;;2.20;99.90;;;;;;4946610;28;20655;-64
2024/01/14 11:37:09;;;;;;;30.00;20.43;;;2.20;99.90;;;;;;4958271;28;20317;-64
2024/01/14 11:39:36;;;;;;;28.13;20.47;;;2.20;99.90;;;;;;4870421;29;20771;-63
2024/01/14 11:42:03;;;;;;;33.87;21.13;;;2.20;99.90;;;;;;4937780;28;20211;-63
2024/01/14 11:44:31;;;;;;;41.73;22.73;;;2.10;99.90;;;;;;4937381;29;20273;-62
2024/01/14 11:46:58;;;;;;;36.50;22.27;;;2.10;99.90;;;;;;4928557;28;20190;-64
2024/01/14 11:49:28;;;;;;;39.10;22.10;;;2.10;99.90;;;;;;4950251;28;20202;-61
2024/01/14 11:51:59;;;;;;;32.30;19.43;;;2.10;99.90;;;;;;4948655;28;20190;-58
2024/01/14 11:54:27;;;;;;;45.07;21.00;;;2.10;99.90;;;;;;4932124;29;20195;-58
2024/01/14 11:56:54;;;;;;;35.83;20.20;;;2.20;99.90;;;;;;4934205;28;20230;-56
2024/01/14 11:59:22;;;;;;;33.37;20.83;;;2.20;99.90;;;;;;4931401;28;20277;-57
2024/01/14 12:02:16;;;;;;;35.37;21.40;;;2.20;99.90;;;;;;4930877;28;20203;-57
2024/01/14 12:04:44;;;;;;;30.03;20.47;;;2.20;99.90;;;;;;4945164;28;20795;-58
2024/01/14 12:07:24;;;;;;;32.33;20.83;;;2.20;99.90;;;;;;4951161;28;20206;-58
2024/01/14 12:09:55;;;;;;;31.40;20.63;;;2.20;99.90;;;;;;4938352;28;20269;-60
2024/01/14 12:12:24;;;;;;;30.17;20.27;;;2.20;99.90;;;;;;4948561;28;20524;-63
2024/01/14 12:14:52;;;;;;;31.47;18.77;;;2.20;99.90;;;;;;4951479;28;20218;-63
2024/01/14 12:17:19;;;;;;;30.43;19.47;;;2.20;99.90;;;;;;4947481;28;20627;-64
2024/01/14 12:19:58;;;;;;;24.60;18.13;;;2.20;99.90;;;;;;4951130;28;20191;-64
2024/01/14 12:22:26;;;;;;;37.10;22.00;;;2.20;99.90;;;;;;4950375;28;20218;-62
2024/01/14 12:24:54;;;;;;;33.60;19.93;;;2.20;99.90;;;;;;4938249;29;20278;-64
2024/01/14 12:27:22;;;;;;;31.03;19.10;;;2.20;99.90;;;;;;4949063;28;20611;-65
2024/01/14 12:29:49;;;;;;;26.80;19.20;;;2.20;99.90;;;;;;4950861;28;20198;-62
2024/01/14 12:32:16;;;;;;;29.10;18.67;;;2.20;99.90;;;;;;4948023;28;20249;-64
2024/01/14 12:34:44;;;;;;;30.67;19.90;;;2.20;99.90;;;;;;4932357;29;20695;-63
2024/01/14 12:37:11;;;;;;;27.80;19.03;;;2.20;99.90;;;;;;4931080;28;20207;-62
2024/01/14 12:39:40;;;;;;;27.50;19.77;;;2.20;99.90;;;;;;4949462;28;20199;-62
2024/01/14 12:42:08;;;;;;;27.97;19.50;;;2.20;99.90;;;;;;4951847;28;20241;-63
2024/01/14 12:44:42;;;;;;;21.63;17.83;;;2.20;99.90;;;;;;4915664;29;20313;-63